Time;durP1;ratioP1;P1;durP2;ratioP2;P2;SDS_P1;SDS_P2;PMS_P1;PMS_P2;Temp;Humidity;BMP_temperature;BMP_pressure;BME280_temperature;BME280_humidity;BME280_pressure;Samples;Min_cycle;Max_cycle;Signal;HPM_P1;HPM_P2
2024/03/12 00:00:15;;;;;;;82.82;40.55;;;;;;;;;;5077191;28;20207;-74
2024/03/12 00:02:45;;;;;;;71.82;38.72;;;;;;;;;;5066053;28;20597;-73
2024/03/12 00:05:15;;;;;;;81.30;40.33;;;;;;;;;;5069334;28;20184;-73
2024/03/12 00:07:42;;;;;;;83.65;41.10;;;;;;;;;;5071042;28;20208;-73
2024/03/12 00:10:09;;;;;;;82.93;41.00;;;;;;;;;;5063864;28;20204;-73
2024/03/12 00:12:38;;;;;;;87.18;43.35;;;;;;;;;;5069403;28;20196;-72
2024/03/12 00:15:05;;;;;;;86.35;43.80;;;;;;;;;;5057635;28;20271;-73
2024/03/12 00:17:31;;;;;;;83.65;41.40;;;;;;;;;;5068442;28;20280;-73
2024/03/12 00:19:59;;;;;;;92.13;42.08;;;;;;;;;;5065686;28;20224;-73
2024/03/12 00:22:25;;;;;;;89.95;44.45;;;;;;;;;;5059586;28;20268;-73
2024/03/12 00:24:50;;;;;;;88.78;42.90;;;;;;;;;;5069194;28;20723;-72
2024/03/12 00:27:16;;;;;;;79.75;40.60;;;;;;;;;;5052286;28;20508;-71
2024/03/12 00:29:42;;;;;;;88.85;42.13;;;;;;;;;;5068019;28;20187;-71
2024/03/12 00:32:07;;;;;;;93.88;44.38;;;;;;;;;;5068127;28;20648;-72
2024/03/12 00:34:34;;;;;;;96.18;44.50;;;;;;;;;;5065185;28;20608;-72
2024/03/12 00:37:00;;;;;;;94.22;45.53;;;;;;;;;;5064597;28;20713;-72
2024/03/12 00:39:25;;;;;;;100.05;45.20;;;;;;;;;;5065166;28;20193;-72
2024/03/12 00:41:51;;;;;;;89.30;43.67;;;;;;;;;;5066639;28;20227;-72
2024/03/12 00:44:16;;;;;;;98.13;46.25;;;;;;;;;;5064289;28;20196;-72
2024/03/12 00:46:42;;;;;;;97.38;44.63;;;;;;;;;;5070306;28;20287;-72
2024/03/12 00:49:07;;;;;;;100.30;46.05;;;;;;;;;;5055085;28;20614;-72
2024/03/12 00:51:33;;;;;;;87.85;42.13;;;;;;;;;;5040016;28;20265;-72
2024/03/12 00:53:59;;;;;;;94.22;44.15;;;;;;;;;;5065880;28;20275;-72
2024/03/12 00:56:27;;;;;;;90.65;43.10;;;;;;;;;;5062358;28;20189;-72
2024/03/12 00:58:53;;;;;;;98.18;43.63;;;;;;;;;;5062393;28;20204;-72
2024/03/12 01:01:20;;;;;;;96.75;45.58;;;;;;;;;;5068005;28;20200;-73
2024/03/12 01:03:46;;;;;;;89.30;43.13;;;;;;;;;;5062782;28;20192;-72
2024/03/12 01:06:13;;;;;;;82.50;42.60;;;;;;;;;;5070032;28;20265;-72
2024/03/12 01:08:39;;;;;;;96.40;45.08;;;;;;;;;;5069115;28;20232;-72
2024/03/12 01:11:06;;;;;;;98.30;44.08;;;;;;;;;;5053472;28;20613;-72
2024/03/12 01:13:33;;;;;;;95.65;43.22;;;;;;;;;;5055658;28;20218;-73
2024/03/12 01:15:59;;;;;;;93.55;43.95;;;;;;;;;;5058091;28;20193;-72
2024/03/12 01:18:24;;;;;;;90.85;43.85;;;;;;;;;;5053228;28;20221;-73
2024/03/12 01:20:50;;;;;;;92.80;44.00;;;;;;;;;;5065403;28;20232;-72
2024/03/12 01:23:15;;;;;;;94.22;43.40;;;;;;;;;;5063012;28;20536;-72
2024/03/12 01:25:41;;;;;;;99.60;47.17;;;;;;;;;;5059286;28;20941;-72
2024/03/12 01:28:10;;;;;;;98.70;43.95;;;;;;;;;;5063869;28;20309;-72
2024/03/12 01:30:36;;;;;;;92.13;44.97;;;;;;;;;;5060896;28;20193;-72
2024/03/12 01:33:02;;;;;;;95.20;46.63;;;;;;;;;;5054124;28;20189;-72
2024/03/12 01:35:30;;;;;;;92.78;44.22;;;;;;;;;;5043116;28;20272;-72
2024/03/12 01:37:57;;;;;;;90.95;44.05;;;;;;;;;;5063643;28;20544;-72
2024/03/12 01:40:25;;;;;;;96.68;44.83;;;;;;;;;;5052489;28;20362;-72
2024/03/12 01:42:52;;;;;;;89.30;43.42;;;;;;;;;;5050688;28;20216;-72
2024/03/12 01:45:22;;;;;;;94.25;44.63;;;;;;;;;;5061038;28;20223;-72
2024/03/12 01:47:52;;;;;;;100.53;46.22;;;;;;;;;;5059464;28;20209;-72
2024/03/12 01:50:18;;;;;;;98.97;43.67;;;;;;;;;;5060780;28;20288;-72
2024/03/12 01:52:44;;;;;;;98.43;44.85;;;;;;;;;;5067485;28;20188;-73
2024/03/12 01:55:11;;;;;;;93.65;45.13;;;;;;;;;;5063735;28;20254;-72
2024/03/12 01:57:47;;;;;;;92.35;42.75;;;;;;;;;;5064765;28;20189;-73
2024/03/12 02:00:13;;;;;;;96.68;44.97;;;;;;;;;;5050110;28;20326;-72
2024/03/12 02:02:43;;;;;;;90.88;43.55;;;;;;;;;;5061234;28;20199;-72
2024/03/12 02:05:12;;;;;;;92.57;44.38;;;;;;;;;;5062992;28;20216;-72
2024/03/12 02:07:45;;;;;;;87.18;43.13;;;;;;;;;;5062036;28;20299;-72
2024/03/12 02:10:14;;;;;;;101.47;45.20;;;;;;;;;;5050733;28;20194;-72
2024/03/12 02:12:41;;;;;;;91.38;44.13;;;;;;;;;;5060814;28;20200;-72
2024/03/12 02:15:08;;;;;;;93.70;43.92;;;;;;;;;;5060988;28;20492;-72
2024/03/12 02:17:34;;;;;;;101.03;45.08;;;;;;;;;;5067254;28;20200;-72
2024/03/12 02:20:00;;;;;;;95.10;43.05;;;;;;;;;;5066687;28;20630;-72
2024/03/12 02:22:26;;;;;;;98.78;46.28;;;;;;;;;;5063202;28;20654;-72
2024/03/12 02:24:52;;;;;;;98.28;44.97;;;;;;;;;;5060789;28;20662;-72
2024/03/12 02:27:18;;;;;;;101.05;45.78;;;;;;;;;;5057031;28;20210;-72
2024/03/12 02:29:47;;;;;;;99.55;45.33;;;;;;;;;;5063178;28;20235;-72
2024/03/12 02:32:13;;;;;;;103.05;47.45;;;;;;;;;;5054663;28;20268;-72
2024/03/12 02:34:38;;;;;;;103.90;46.92;;;;;;;;;;5063967;28;20727;-72
2024/03/12 02:37:04;;;;;;;95.72;44.88;;;;;;;;;;5062654;28;20185;-72
2024/03/12 02:39:30;;;;;;;108.72;46.92;;;;;;;;;;5068622;28;20204;-72
2024/03/12 02:41:57;;;;;;;92.93;44.92;;;;;;;;;;5055700;28;20547;-72
2024/03/12 02:44:22;;;;;;;100.50;46.15;;;;;;;;;;5048130;28;20204;-72
2024/03/12 02:46:52;;;;;;;101.70;47.47;;;;;;;;;;5064372;28;20213;-72
2024/03/12 02:49:19;;;;;;;95.75;46.72;;;;;;;;;;5059450;28;20245;-72
2024/03/12 02:51:45;;;;;;;94.15;45.63;;;;;;;;;;5059226;28;20184;-72
2024/03/12 02:54:14;;;;;;;97.07;46.55;;;;;;;;;;5067632;28;20192;-72
2024/03/12 02:56:40;;;;;;;99.15;46.33;;;;;;;;;;5060526;28;20223;-72
2024/03/12 02:59:08;;;;;;;95.25;46.03;;;;;;;;;;5067310;28;20193;-72
2024/03/12 03:01:35;;;;;;;101.03;45.42;;;;;;;;;;5065739;28;20193;-72
2024/03/12 03:04:01;;;;;;;93.65;46.13;;;;;;;;;;5064061;28;20191;-72
2024/03/12 03:06:26;;;;;;;90.43;45.35;;;;;;;;;;5058166;28;20582;-72
2024/03/12 03:08:51;;;;;;;90.63;44.30;;;;;;;;;;5073073;28;20552;-72
2024/03/12 03:11:17;;;;;;;86.25;45.17;;;;;;;;;;5069570;28;20258;-72
2024/03/12 03:13:42;;;;;;;85.95;45.13;;;;;;;;;;5073615;28;20221;-72
2024/03/12 03:16:08;;;;;;;87.82;44.95;;;;;;;;;;5051812;28;20201;-72
2024/03/12 03:18:34;;;;;;;91.45;46.03;;;;;;;;;;5046543;28;20204;-72
2024/03/12 03:21:00;;;;;;;86.35;44.08;;;;;;;;;;5049035;28;20238;-71
2024/03/12 03:23:25;;;;;;;89.45;44.78;;;;;;;;;;5052220;28;20197;-72
2024/03/12 03:25:50;;;;;;;93.32;44.50;;;;;;;;;;5066556;28;20184;-72
2024/03/12 03:28:16;;;;;;;92.88;46.80;;;;;;;;;;5058018;28;20704;-72
2024/03/12 03:30:42;;;;;;;92.28;45.35;;;;;;;;;;5065827;28;20644;-72
2024/03/12 03:33:07;;;;;;;102.65;46.55;;;;;;;;;;5065152;28;20197;-72
2024/03/12 03:35:33;;;;;;;92.75;45.67;;;;;;;;;;5057806;28;20240;-72
2024/03/12 03:38:00;;;;;;;101.10;46.78;;;;;;;;;;5058686;28;20185;-72
2024/03/12 03:40:26;;;;;;;93.88;46.88;;;;;;;;;;5071606;28;20205;-72
2024/03/12 03:42:55;;;;;;;89.40;45.35;;;;;;;;;;5062765;28;20258;-72
2024/03/12 03:45:22;;;;;;;99.03;45.92;;;;;;;;;;5065203;28;20200;-72
2024/03/12 03:47:47;;;;;;;99.00;46.95;;;;;;;;;;5058779;28;20229;-72
2024/03/12 03:50:12;;;;;;;95.60;45.90;;;;;;;;;;5065188;28;20274;-72
2024/03/12 03:52:38;;;;;;;89.97;45.80;;;;;;;;;;5069482;28;20192;-72
2024/03/12 03:55:07;;;;;;;94.90;44.67;;;;;;;;;;5062567;28;20196;-72
2024/03/12 03:57:32;;;;;;;89.35;44.47;;;;;;;;;;5061093;28;20195;-73
2024/03/12 03:59:58;;;;;;;91.43;45.92;;;;;;;;;;5066390;28;20189;-71
2024/03/12 04:02:23;;;;;;;89.95;44.05;;;;;;;;;;5059196;28;20276;-72
2024/03/12 04:04:51;;;;;;;94.20;45.95;;;;;;;;;;5053529;28;20206;-72
2024/03/12 04:07:19;;;;;;;87.80;44.45;;;;;;;;;;5065169;28;20204;-72
2024/03/12 04:09:45;;;;;;;97.35;45.60;;;;;;;;;;5072822;28;20266;-73
2024/03/12 04:12:11;;;;;;;89.80;46.05;;;;;;;;;;5070087;28;20197;-72
2024/03/12 04:14:36;;;;;;;87.28;46.33;;;;;;;;;;5063017;28;20196;-72
2024/03/12 04:17:02;;;;;;;90.72;45.45;;;;;;;;;;5068766;28;20217;-72
2024/03/12 04:19:32;;;;;;;88.00;46.60;;;;;;;;;;5066287;28;20200;-72
2024/03/12 04:21:58;;;;;;;88.20;45.17;;;;;;;;;;5085642;28;20258;-72
2024/03/12 04:24:25;;;;;;;91.40;46.10;;;;;;;;;;5062950;28;20224;-72
2024/03/12 04:26:54;;;;;;;92.40;47.20;;;;;;;;;;5058723;28;20209;-72
2024/03/12 04:29:20;;;;;;;86.70;45.97;;;;;;;;;;5054131;28;20193;-72
2024/03/12 04:31:45;;;;;;;98.47;46.72;;;;;;;;;;5064470;28;20185;-72
2024/03/12 04:34:11;;;;;;;93.70;46.90;;;;;;;;;;5066809;28;20274;-73
2024/03/12 04:36:36;;;;;;;107.72;50.10;;;;;;;;;;5062839;28;20224;-73
2024/03/12 04:41:47;;;;;;;102.22;47.75;;;;;;;;;;5066518;28;20194;-73
2024/03/12 04:44:13;;;;;;;111.57;50.08;;;;;;;;;;5044109;28;20173;-72
2024/03/12 04:46:43;;;;;;;123.32;50.42;;;;;;;;;;5061253;28;20235;-72
2024/03/12 04:49:08;;;;;;;119.63;50.55;;;;;;;;;;5067125;28;20200;-72
2024/03/12 04:51:34;;;;;;;115.20;49.92;;;;;;;;;;5066645;28;20189;-72
2024/03/12 04:53:59;;;;;;;110.70;51.58;;;;;;;;;;5058718;28;20196;-73
2024/03/12 04:56:25;;;;;;;122.15;52.25;;;;;;;;;;5061302;28;20649;-73
2024/03/12 04:58:50;;;;;;;122.72;52.63;;;;;;;;;;5063405;28;20193;-73
2024/03/12 05:01:15;;;;;;;111.07;50.83;;;;;;;;;;5060512;28;20195;-73
2024/03/12 05:03:41;;;;;;;123.55;51.40;;;;;;;;;;5069958;28;20574;-73
2024/03/12 05:06:07;;;;;;;122.18;53.58;;;;;;;;;;5064922;28;20201;-72
2024/03/12 05:08:33;;;;;;;124.75;54.92;;;;;;;;;;5062749;28;20212;-72
2024/03/12 05:10:58;;;;;;;129.50;53.70;;;;;;;;;;5064954;28;20203;-72
2024/03/12 05:13:24;;;;;;;140.05;56.60;;;;;;;;;;5057991;28;20283;-72
2024/03/12 05:15:49;;;;;;;132.35;55.17;;;;;;;;;;5061246;28;20177;-72
2024/03/12 05:18:14;;;;;;;142.95;56.08;;;;;;;;;;5058248;28;20204;-73
2024/03/12 05:20:40;;;;;;;150.50;58.45;;;;;;;;;;5069516;28;20272;-73
2024/03/12 05:23:10;;;;;;;141.85;57.22;;;;;;;;;;5070587;28;20197;-73
2024/03/12 05:25:42;;;;;;;146.18;58.38;;;;;;;;;;5064745;28;20245;-73
2024/03/12 05:28:08;;;;;;;155.18;57.40;;;;;;;;;;5063532;28;20204;-73
2024/03/12 05:30:39;;;;;;;151.18;57.38;;;;;;;;;;5065014;28;20611;-73
2024/03/12 05:33:09;;;;;;;146.80;56.95;;;;;;;;;;5061895;28;20268;-73
2024/03/12 05:35:35;;;;;;;145.23;57.53;;;;;;;;;;5064234;28;20228;-73
2024/03/12 05:38:11;;;;;;;155.23;60.10;;;;;;;;;;5058751;28;20319;-73
2024/03/12 05:40:42;;;;;;;159.48;59.70;;;;;;;;;;5064662;28;20207;-73
2024/03/12 05:48:37;;;;;;;164.18;58.58;;;;;;;;;;5060123;28;20220;-74
2024/03/12 05:51:03;;;;;;;146.80;57.80;;;;;;;;;;5064530;28;20216;-74
2024/03/12 05:53:29;;;;;;;152.20;60.15;;;;;;;;;;5062232;28;20707;-73
2024/03/12 05:55:54;;;;;;;150.25;59.97;;;;;;;;;;5065990;28;20189;-72
2024/03/12 05:58:21;;;;;;;153.38;61.65;;;;;;;;;;5061816;28;20284;-72
2024/03/12 06:00:47;;;;;;;149.35;58.10;;;;;;;;;;5065041;28;20297;-72
2024/03/12 06:03:13;;;;;;;153.10;59.25;;;;;;;;;;5069333;28;20696;-73
2024/03/12 06:05:38;;;;;;;140.23;59.08;;;;;;;;;;5069823;28;20275;-72
2024/03/12 06:08:04;;;;;;;159.35;60.92;;;;;;;;;;5069516;28;20208;-72
2024/03/12 06:10:29;;;;;;;159.23;61.10;;;;;;;;;;5063997;28;20218;-73
2024/03/12 06:12:55;;;;;;;159.90;57.85;;;;;;;;;;5067709;28;20185;-73
2024/03/12 06:15:20;;;;;;;144.05;57.47;;;;;;;;;;5068545;28;20326;-73
2024/03/12 06:17:46;;;;;;;147.23;59.67;;;;;;;;;;5055784;28;20185;-74
2024/03/12 06:20:15;;;;;;;143.05;58.35;;;;;;;;;;5055587;28;20418;-73
2024/03/12 06:22:43;;;;;;;150.93;58.78;;;;;;;;;;5059777;28;20192;-73
2024/03/12 06:25:09;;;;;;;152.00;59.15;;;;;;;;;;5064806;28;20267;-73
2024/03/12 06:27:34;;;;;;;150.85;57.78;;;;;;;;;;5058648;28;20213;-73
2024/03/12 06:30:00;;;;;;;150.73;57.95;;;;;;;;;;5056177;28;20196;-73
2024/03/12 06:32:31;;;;;;;144.88;58.00;;;;;;;;;;5050045;28;20209;-73
2024/03/12 06:34:56;;;;;;;136.07;54.45;;;;;;;;;;5066531;28;20273;-73
2024/03/12 06:37:23;;;;;;;136.85;53.45;;;;;;;;;;5064264;28;20189;-74
2024/03/12 06:39:49;;;;;;;134.93;54.88;;;;;;;;;;5059467;28;20185;-73
2024/03/12 06:42:19;;;;;;;131.82;54.38;;;;;;;;;;5063841;28;20241;-73
2024/03/12 06:44:46;;;;;;;134.93;55.90;;;;;;;;;;5066386;28;20284;-73
2024/03/12 06:47:12;;;;;;;133.88;56.67;;;;;;;;;;5066209;28;20215;-73
2024/03/12 06:49:44;;;;;;;132.55;55.35;;;;;;;;;;5062711;28;20194;-73
2024/03/12 06:52:10;;;;;;;131.48;56.13;;;;;;;;;;5060101;28;20235;-73
2024/03/12 06:54:36;;;;;;;129.57;54.72;;;;;;;;;;5063564;28;20220;-73
2024/03/12 06:57:04;;;;;;;126.97;55.78;;;;;;;;;;5069277;28;20656;-74
2024/03/12 06:59:31;;;;;;;123.05;53.65;;;;;;;;;;5054934;28;20229;-74
2024/03/12 07:01:57;;;;;;;127.70;53.47;;;;;;;;;;5054053;28;20265;-73
2024/03/12 07:04:23;;;;;;;123.15;53.03;;;;;;;;;;5041906;28;20182;-74
2024/03/12 07:06:52;;;;;;;122.75;54.58;;;;;;;;;;5066862;28;20267;-73
2024/03/12 07:09:26;;;;;;;117.35;50.70;;;;;;;;;;5064926;28;20671;-74
2024/03/12 07:11:58;;;;;;;118.57;50.83;;;;;;;;;;5066259;28;20279;-73
2024/03/12 07:14:27;;;;;;;107.20;49.45;;;;;;;;;;5060456;28;20188;-73
2024/03/12 07:16:54;;;;;;;101.60;49.13;;;;;;;;;;5068236;28;20184;-74
2024/03/12 07:19:22;;;;;;;111.97;48.50;;;;;;;;;;5055020;28;20773;-74
2024/03/12 07:21:48;;;;;;;93.88;47.80;;;;;;;;;;5060331;28;20181;-75
2024/03/12 07:24:13;;;;;;;96.10;46.08;;;;;;;;;;5063975;28;20264;-73
2024/03/12 07:26:39;;;;;;;89.95;44.83;;;;;;;;;;5054878;28;20189;-73
2024/03/12 07:29:06;;;;;;;84.88;42.47;;;;;;;;;;5061991;28;20298;-73
2024/03/12 07:31:35;;;;;;;86.15;44.13;;;;;;;;;;5062231;28;20193;-73
2024/03/12 07:34:01;;;;;;;76.43;40.78;;;;;;;;;;5059849;28;20237;-73
2024/03/12 07:36:30;;;;;;;78.07;39.55;;;;;;;;;;5066686;28;20258;-73
2024/03/12 07:38:59;;;;;;;70.03;37.17;;;;;;;;;;5068055;28;20177;-73
2024/03/12 07:41:25;;;;;;;74.70;37.25;;;;;;;;;;5060024;28;20188;-73
2024/03/12 07:43:51;;;;;;;64.03;34.33;;;;;;;;;;5068733;28;20667;-73
2024/03/12 07:46:19;;;;;;;57.65;32.35;;;;;;;;;;5066167;28;20188;-73
2024/03/12 07:48:44;;;;;;;60.40;32.88;;;;;;;;;;5060868;28;20240;-73
2024/03/12 07:51:10;;;;;;;60.22;31.83;;;;;;;;;;5066984;28;20189;-73
2024/03/12 07:53:36;;;;;;;54.05;29.27;;;;;;;;;;5063002;28;20200;-74
2024/03/12 07:56:06;;;;;;;49.78;28.13;;;;;;;;;;5071315;28;20211;-73
2024/03/12 07:58:33;;;;;;;48.30;27.77;;;;;;;;;;5084661;28;20246;-73
2024/03/12 08:00:59;;;;;;;46.90;27.48;;;;;;;;;;5067320;28;20888;-73
2024/03/12 08:03:24;;;;;;;45.08;26.00;;;;;;;;;;5067624;28;20636;-73
2024/03/12 08:05:50;;;;;;;40.05;24.05;;;;;;;;;;5065324;28;20193;-74
2024/03/12 08:08:15;;;;;;;39.30;24.00;;;;;;;;;;5068802;28;20209;-74
2024/03/12 08:10:41;;;;;;;39.28;23.45;;;;;;;;;;5069132;28;20189;-74
2024/03/12 08:13:07;;;;;;;43.72;24.88;;;;;;;;;;5062957;28;20185;-74
2024/03/12 08:15:32;;;;;;;41.25;23.70;;;;;;;;;;5057800;28;20225;-74
2024/03/12 08:17:57;;;;;;;44.88;24.75;;;;;;;;;;5070397;28;20184;-74
2024/03/12 08:20:23;;;;;;;43.75;23.75;;;;;;;;;;5081239;28;20200;-74
2024/03/12 08:22:49;;;;;;;48.03;24.73;;;;;;;;;;5072666;28;20204;-73
2024/03/12 08:25:18;;;;;;;48.85;25.30;;;;;;;;;;5065738;28;20192;-74
2024/03/12 08:27:43;;;;;;;65.05;34.22;;;;;;;;;;5066313;28;20269;-74
2024/03/12 08:30:09;;;;;;;50.55;26.08;;;;;;;;;;5074797;28;20196;-73
2024/03/12 08:32:36;;;;;;;52.05;26.20;;;;;;;;;;5058643;28;20185;-73
2024/03/12 08:35:02;;;;;;;54.85;26.55;;;;;;;;;;5044062;28;20221;-74
2024/03/12 08:37:28;;;;;;;53.42;26.48;;;;;;;;;;5065732;28;20559;-73
2024/03/12 08:39:57;;;;;;;54.80;26.23;;;;;;;;;;5059827;28;20205;-74
2024/03/12 08:42:22;;;;;;;52.85;25.92;;;;;;;;;;5067961;28;20192;-74
2024/03/12 08:44:48;;;;;;;59.80;25.70;;;;;;;;;;5061464;28;20668;-74
2024/03/12 08:47:14;;;;;;;52.97;25.17;;;;;;;;;;5066147;28;20208;-74
2024/03/12 08:49:40;;;;;;;55.17;25.13;;;;;;;;;;5060385;28;20208;-74
2024/03/12 08:52:06;;;;;;;53.95;23.60;;;;;;;;;;5060200;28;20550;-74
2024/03/12 08:54:32;;;;;;;52.28;23.55;;;;;;;;;;5067585;28;20185;-74
2024/03/12 08:56:58;;;;;;;54.05;23.63;;;;;;;;;;5053707;28;20225;-74
2024/03/12 08:59:24;;;;;;;44.25;21.73;;;;;;;;;;5070890;28;20193;-73
2024/03/12 09:01:49;;;;;;;47.03;21.02;;;;;;;;;;5063511;28;20192;-73
2024/03/12 09:04:15;;;;;;;47.20;22.10;;;;;;;;;;5069331;28;20638;-74
2024/03/12 09:06:41;;;;;;;44.50;20.02;;;;;;;;;;5068443;28;20631;-73
2024/03/12 09:09:07;;;;;;;41.40;19.17;;;;;;;;;;5066712;28;20238;-73
2024/03/12 09:11:32;;;;;;;37.47;19.23;;;;;;;;;;5051235;28;20504;-73
2024/03/12 09:13:59;;;;;;;38.63;18.90;;;;;;;;;;5068906;28;20267;-73
2024/03/12 09:16:24;;;;;;;38.75;19.58;;;;;;;;;;5069187;28;20181;-72
2024/03/12 09:18:50;;;;;;;37.30;19.13;;;;;;;;;;5059358;28;20387;-73
2024/03/12 09:21:18;;;;;;;37.13;18.30;;;;;;;;;;5069419;28;20192;-73
2024/03/12 09:23:43;;;;;;;36.85;18.02;;;;;;;;;;5064803;28;20193;-74
2024/03/12 09:26:09;;;;;;;39.08;17.67;;;;;;;;;;5066288;28;20198;-73
2024/03/12 09:28:38;;;;;;;32.35;17.48;;;;;;;;;;5046649;28;20215;-73
2024/03/12 09:31:04;;;;;;;32.13;16.83;;;;;;;;;;5066868;28;20698;-73
2024/03/12 09:33:31;;;;;;;32.50;17.42;;;;;;;;;;5055802;28;20185;-72
2024/03/12 09:35:56;;;;;;;36.22;17.85;;;;;;;;;;5042166;28;20694;-73
2024/03/12 09:38:22;;;;;;;35.15;18.23;;;;;;;;;;5060652;28;20241;-73
2024/03/12 09:40:48;;;;;;;37.63;17.85;;;;;;;;;;5058748;28;20201;-72
2024/03/12 09:43:18;;;;;;;38.47;18.33;;;;;;;;;;5057646;28;20220;-73
2024/03/12 09:45:46;;;;;;;35.28;17.30;;;;;;;;;;5064012;28;20183;-73
2024/03/12 09:48:15;;;;;;;38.78;18.10;;;;;;;;;;5064809;28;20208;-72
2024/03/12 09:50:44;;;;;;;36.55;18.35;;;;;;;;;;5051535;28;20203;-73
2024/03/12 09:53:14;;;;;;;42.00;18.38;;;;;;;;;;5062086;28;20189;-73
2024/03/12 09:55:41;;;;;;;44.65;18.50;;;;;;;;;;5061911;28;20268;-73
2024/03/12 09:58:07;;;;;;;42.08;20.65;;;;;;;;;;5063353;28;20380;-73
2024/03/12 10:00:33;;;;;;;44.05;20.00;;;;;;;;;;5061881;28;20201;-73
2024/03/12 10:03:00;;;;;;;45.97;20.17;;;;;;;;;;5063009;28;20285;-72
2024/03/12 10:05:25;;;;;;;44.70;20.30;;;;;;;;;;5063902;28;20287;-72
2024/03/12 10:08:14;;;;;;;43.60;20.70;;;;;;;;;;5055670;28;20217;-72
2024/03/12 10:10:44;;;;;;;46.40;21.50;;;;;;;;;;5055938;28;20240;-72
2024/03/12 10:13:17;;;;;;;46.85;21.15;;;;;;;;;;5051961;28;20200;-72
2024/03/12 10:15:59;;;;;;;45.13;20.67;;;;;;;;;;5059901;28;20188;-72
2024/03/12 10:18:27;;;;;;;49.90;19.98;;;;;;;;;;5042503;28;20197;-72
2024/03/12 10:20:57;;;;;;;46.28;20.50;;;;;;;;;;5068669;28;20214;-72
2024/03/12 10:23:25;;;;;;;41.45;20.27;;;;;;;;;;5056288;28;20184;-74
2024/03/12 10:26:07;;;;;;;46.67;22.15;;;;;;;;;;5065490;28;20185;-72
2024/03/12 10:28:33;;;;;;;42.22;19.60;;;;;;;;;;5066330;28;20749;-72
2024/03/12 10:31:10;;;;;;;45.58;20.80;;;;;;;;;;5061852;28;20188;-73
2024/03/12 10:33:44;;;;;;;46.55;20.85;;;;;;;;;;5063109;28;20428;-73
2024/03/12 10:36:10;;;;;;;42.72;20.65;;;;;;;;;;5062935;28;20315;-72
2024/03/12 10:38:40;;;;;;;41.53;20.63;;;;;;;;;;5057446;28;20234;-73
2024/03/12 10:41:18;;;;;;;42.92;20.15;;;;;;;;;;5062891;28;20181;-73
2024/03/12 10:43:49;;;;;;;42.05;19.95;;;;;;;;;;5062782;28;20204;-73
2024/03/12 10:46:16;;;;;;;42.20;20.48;;;;;;;;;;5064924;28;20216;-73
2024/03/12 10:48:42;;;;;;;41.97;19.70;;;;;;;;;;5065009;28;20227;-73
2024/03/12 10:51:12;;;;;;;38.47;19.35;;;;;;;;;;5065330;28;20261;-73
2024/03/12 10:53:39;;;;;;;39.90;19.25;;;;;;;;;;5064544;28;20710;-73
2024/03/12 10:56:05;;;;;;;40.72;19.33;;;;;;;;;;5066743;28;20242;-73
2024/03/12 10:58:33;;;;;;;44.30;19.55;;;;;;;;;;5062590;28;20213;-74
2024/03/12 11:01:00;;;;;;;38.65;19.15;;;;;;;;;;5064455;28;20561;-74
2024/03/12 11:03:27;;;;;;;40.00;18.73;;;;;;;;;;5068475;28;20275;-74
2024/03/12 11:05:54;;;;;;;40.70;19.40;;;;;;;;;;5049497;28;20242;-74
2024/03/12 11:08:19;;;;;;;38.35;18.55;;;;;;;;;;5059155;28;20216;-74
2024/03/12 11:10:47;;;;;;;39.58;19.35;;;;;;;;;;5065570;28;20292;-73
2024/03/12 11:13:15;;;;;;;41.95;18.17;;;;;;;;;;5062120;28;20181;-73
2024/03/12 11:15:42;;;;;;;43.88;18.52;;;;;;;;;;5069489;28;20199;-73
2024/03/12 11:18:09;;;;;;;41.75;18.67;;;;;;;;;;5059445;28;20174;-74
2024/03/12 11:20:41;;;;;;;39.63;18.55;;;;;;;;;;5067961;28;20554;-74
2024/03/12 11:23:07;;;;;;;39.78;18.45;;;;;;;;;;5064625;28;20552;-74
2024/03/12 11:25:43;;;;;;;44.53;18.83;;;;;;;;;;5063758;28;20192;-74
2024/03/12 11:28:22;;;;;;;48.35;19.35;;;;;;;;;;5058088;28;20216;-73
2024/03/12 11:30:58;;;;;;;39.08;18.65;;;;;;;;;;5070953;28;20184;-73
2024/03/12 11:33:41;;;;;;;41.60;19.40;;;;;;;;;;5068177;28;20299;-73
2024/03/12 11:36:22;;;;;;;42.75;18.52;;;;;;;;;;5068408;28;20695;-73
2024/03/12 11:38:51;;;;;;;46.47;19.60;;;;;;;;;;5077573;28;20188;-73
2024/03/12 11:41:21;;;;;;;36.03;17.55;;;;;;;;;;5067724;28;20181;-72
2024/03/12 11:43:47;;;;;;;42.70;18.00;;;;;;;;;;5063071;28;20188;-72
2024/03/12 11:46:41;;;;;;;40.47;17.13;;;;;;;;;;5070187;28;20188;-72
2024/03/12 11:49:33;;;;;;;37.97;17.20;;;;;;;;;;5087057;28;20216;-74
2024/03/12 11:51:59;;;;;;;33.28;15.52;;;;;;;;;;5064745;28;20189;-73
2024/03/12 11:54:43;;;;;;;29.67;14.43;;;;;;;;;;5068241;28;20197;-73
2024/03/12 11:57:24;;;;;;;31.75;15.18;;;;;;;;;;5070185;28;20229;-73
2024/03/12 11:59:50;;;;;;;30.92;14.20;;;;;;;;;;5066790;28;20203;-72
2024/03/12 12:02:20;;;;;;;27.27;14.23;;;;;;;;;;5071414;28;20181;-72
2024/03/12 12:04:51;;;;;;;24.00;13.38;;;;;;;;;;5070695;28;20263;-72
2024/03/12 12:07:21;;;;;;;30.00;13.93;;;;;;;;;;5069858;28;20201;-72
2024/03/12 12:09:48;;;;;;;25.90;14.15;;;;;;;;;;5066069;28;20276;-72
2024/03/12 12:12:14;;;;;;;26.27;14.80;;;;;;;;;;5070904;28;20189;-73
2024/03/12 12:14:44;;;;;;;26.95;13.52;;;;;;;;;;5069936;28;20630;-73
2024/03/12 12:17:11;;;;;;;29.35;14.80;;;;;;;;;;5059501;28;20289;-72
2024/03/12 12:19:37;;;;;;;28.98;14.68;;;;;;;;;;5065164;28;20197;-72
2024/03/12 12:22:04;;;;;;;30.27;14.85;;;;;;;;;;5069665;28;20204;-72
2024/03/12 12:24:31;;;;;;;28.15;14.68;;;;;;;;;;5068700;28;20400;-72
2024/03/12 12:26:57;;;;;;;33.03;16.10;;;;;;;;;;5070427;28;20249;-72
2024/03/12 12:29:25;;;;;;;30.73;15.68;;;;;;;;;;5071891;28;20238;-72
2024/03/12 12:31:52;;;;;;;26.55;15.55;;;;;;;;;;5072078;28;20185;-74
2024/03/12 12:34:20;;;;;;;29.25;15.82;;;;;;;;;;5071584;28;20192;-73
2024/03/12 12:36:49;;;;;;;30.10;15.77;;;;;;;;;;5080748;28;20232;-73
2024/03/12 12:39:16;;;;;;;29.23;16.08;;;;;;;;;;5083929;28;20189;-73
2024/03/12 12:41:45;;;;;;;32.15;17.67;;;;;;;;;;5070764;28;20690;-72
2024/03/12 12:44:20;;;;;;;29.80;15.52;;;;;;;;;;5069628;28;20322;-72
2024/03/12 12:46:47;;;;;;;30.83;16.90;;;;;;;;;;5070633;28;20564;-72
2024/03/12 12:49:14;;;;;;;30.42;17.13;;;;;;;;;;5071566;28;20188;-72
2024/03/12 12:51:44;;;;;;;31.90;16.85;;;;;;;;;;5065736;28;20200;-72
2024/03/12 12:54:10;;;;;;;36.63;18.42;;;;;;;;;;5085745;28;20181;-72
2024/03/12 12:56:49;;;;;;;33.78;19.20;;;;;;;;;;5070943;28;20235;-73
2024/03/12 12:59:16;;;;;;;38.40;20.63;;;;;;;;;;5070291;28;20230;-73
2024/03/12 13:01:42;;;;;;;39.47;19.88;;;;;;;;;;5069952;28;20181;-73
2024/03/12 13:04:24;;;;;;;36.53;20.08;;;;;;;;;;5080422;28;20224;-72
2024/03/12 13:06:51;;;;;;;32.95;18.70;;;;;;;;;;5039002;28;20197;-72
2024/03/12 13:09:31;;;;;;;38.63;18.58;;;;;;;;;;5071379;28;20181;-72
2024/03/12 13:11:59;;;;;;;36.25;19.88;;;;;;;;;;5070812;28;20192;-73
2024/03/12 13:14:25;;;;;;;40.67;20.70;;;;;;;;;;5068463;28;20191;-72
2024/03/12 13:16:52;;;;;;;41.50;21.20;;;;;;;;;;5066369;28;20197;-72
2024/03/12 13:19:18;;;;;;;42.67;22.48;;;;;;;;;;5067042;28;20201;-72
2024/03/12 13:21:44;;;;;;;44.15;24.20;;;;;;;;;;5070503;28;20192;-73
2024/03/12 13:24:10;;;;;;;46.42;24.52;;;;;;;;;;5061514;28;20267;-72
2024/03/12 13:26:35;;;;;;;44.72;25.45;;;;;;;;;;5067367;28;20585;-72
2024/03/12 13:29:01;;;;;;;44.75;25.38;;;;;;;;;;5066464;28;20593;-72
2024/03/12 13:31:26;;;;;;;43.55;25.17;;;;;;;;;;5073998;28;20188;-72
2024/03/12 13:33:53;;;;;;;40.50;23.27;;;;;;;;;;5063311;28;20201;-72
2024/03/12 13:36:21;;;;;;;42.38;24.67;;;;;;;;;;5056784;28;20291;-72
2024/03/12 13:38:49;;;;;;;42.63;23.90;;;;;;;;;;5050414;28;20199;-72
2024/03/12 13:41:15;;;;;;;42.33;24.15;;;;;;;;;;5061641;28;20201;-73
2024/03/12 13:43:40;;;;;;;42.80;25.13;;;;;;;;;;5064968;28;20224;-73
2024/03/12 13:46:06;;;;;;;44.33;24.63;;;;;;;;;;5061757;28;20189;-72
2024/03/12 13:48:36;;;;;;;41.40;23.17;;;;;;;;;;5062337;28;20774;-73
2024/03/12 13:51:10;;;;;;;39.72;23.92;;;;;;;;;;5062342;28;20540;-72
2024/03/12 13:53:37;;;;;;;41.00;23.60;;;;;;;;;;5056967;28;20196;-72
2024/03/12 13:56:04;;;;;;;41.35;23.85;;;;;;;;;;5064590;28;20208;-73
2024/03/12 13:58:31;;;;;;;38.50;23.00;;;;;;;;;;5054743;28;20268;-73
2024/03/12 14:00:59;;;;;;;36.92;21.70;;;;;;;;;;5061332;28;20188;-73
2024/03/12 14:03:26;;;;;;;38.28;21.98;;;;;;;;;;5064708;28;20276;-73
2024/03/12 14:05:53;;;;;;;35.55;20.48;;;;;;;;;;5054058;28;20196;-72
2024/03/12 14:08:21;;;;;;;39.90;22.55;;;;;;;;;;5066591;28;20212;-73
2024/03/12 14:10:48;;;;;;;37.15;21.23;;;;;;;;;;5064825;28;20192;-73
2024/03/12 14:13:14;;;;;;;35.03;20.60;;;;;;;;;;5062638;28;20602;-73
2024/03/12 14:15:40;;;;;;;37.35;21.73;;;;;;;;;;5059593;28;20271;-73
2024/03/12 14:18:12;;;;;;;37.28;20.98;;;;;;;;;;5059369;28;20269;-73
2024/03/12 14:20:37;;;;;;;41.33;21.80;;;;;;;;;;5052561;28;20181;-73
2024/03/12 14:23:04;;;;;;;34.03;21.10;;;;;;;;;;5071127;28;20257;-73